Time;durP1;ratioP1;P1;durP2;ratioP2;P2;SDS_P1;SDS_P2;PMS_P1;PMS_P2;Temp;Humidity;BMP_temperature;BMP_pressure;BME280_temperature;BME280_humidity;BME280_pressure;Samples;Min_cycle;Max_cycle;Signal;HPM_P1;HPM_P2
2022/10/15 00:00:44;;;;;;;;;;;;;;;;;;5061051;28;803;-70
2022/10/15 00:03:09;;;;;;;;;;;;;;;;;;5060975;28;876;-70
2022/10/15 00:05:40;;;;;;;;;;;;;;;;;;5060726;28;909;-70
2022/10/15 00:08:07;;;;;;;;;;;;;;;;;;5060984;28;1906;-70
2022/10/15 00:10:32;;;;;;;;;;;;;;;;;;5061036;28;890;-70
2022/10/15 00:12:57;;;;;;;;;;;;;;;;;;5061078;28;1068;-70
2022/10/15 00:15:22;;;;;;;;;;;;;;;;;;5060578;28;889;-70
2022/10/15 00:17:47;;;;;;;;;;;;;;;;;;5060915;28;1183;-70
2022/10/15 00:20:13;;;;;;;;;;;;;;;;;;5060772;28;806;-70
2022/10/15 00:22:39;;;;;;;;;;;;;;;;;;5061081;28;811;-69
2022/10/15 00:25:04;;;;;;;;;;;;;;;;;;5060644;28;1043;-69
2022/10/15 00:27:29;;;;;;;;;;;;;;;;;;5060528;28;1890;-69
2022/10/15 00:29:54;;;;;;;;;;;;;;;;;;5060912;28;890;-69
2022/10/15 00:32:20;;;;;;;;;;;;;;;;;;5060509;28;996;-69
2022/10/15 00:34:45;;;;;;;;;;;;;;;;;;5060706;28;933;-70
2022/10/15 00:37:10;;;;;;;;;;;;;;;;;;5064128;28;1247;-69
2022/10/15 00:39:35;;;;;;;;;;;;;;;;;;5064607;28;858;-69
2022/10/15 00:42:01;;;;;;;;;;;;;;;;;;5064040;28;1001;-70
2022/10/15 00:44:29;;;;;;;;;;;;;;;;;;5064019;28;1017;-70
2022/10/15 00:46:56;;;;;;;;;;;;;;;;;;5063841;28;1890;-70
2022/10/15 00:49:31;;;;;;;;;;;;;;;;;;5064332;28;779;-70
2022/10/15 00:51:59;;;;;;;;;;;;;;;;;;5063856;28;922;-69
2022/10/15 00:54:26;;;;;;;;;;;;;;;;;;5063996;28;1025;-69
2022/10/15 00:56:52;;;;;;;;;;;;;;;;;;5063625;28;1156;-70
2022/10/15 00:59:18;;;;;;;;;;;;;;;;;;5048670;22;3557;-76
2022/10/15 01:01:43;;;;;;;;;;;;;;;;;;5024013;28;841;-76
2022/10/15 01:04:10;;;;;;;;;;;;;;;;;;5024025;28;946;-76
2022/10/15 01:06:35;;;;;;;;;;;;;;;;;;5023727;28;1906;-76
2022/10/15 01:09:00;;;;;;;;;;;;;;;;;;5023942;28;1176;-76
2022/10/15 01:11:35;;;;;;;;;;;;;;;;;;5023825;28;860;-76
2022/10/15 01:14:09;;;;;;;;;;;;;;;;;;5023939;28;823;-77
2022/10/15 01:16:37;;;;;;;;;;;;;;;;;;5023521;28;874;-76
2022/10/15 01:19:10;;;;;;;;;;;;;;;;;;5023968;28;1209;-76
2022/10/15 01:21:45;;;;;;;;;;;;;;;;;;5023958;28;850;-76
2022/10/15 01:24:11;;;;;;;;;;;;;;;;;;5023698;28;1213;-76
2022/10/15 01:26:36;;;;;;;;;;;;;;;;;;5023195;28;2254;-76
2022/10/15 01:29:01;;;;;;;;;;;;;;;;;;5023664;28;1216;-76
2022/10/15 01:31:42;;;;;;;;;;;;;;;;;;5023687;28;973;-76
2022/10/15 01:34:18;;;;;;;;;;;;;;;;;;5023559;28;1009;-76
2022/10/15 01:36:52;;;;;;;;;;;;;;;;;;5023300;28;1013;-76
2022/10/15 01:39:26;;;;;;;;;;;;;;;;;;5023497;28;1239;-76
2022/10/15 01:41:54;;;;;;;;;;;;;;;;;;5023449;28;874;-76
2022/10/15 01:44:22;;;;;;;;;;;;;;;;;;5023396;28;894;-76
2022/10/15 01:46:50;;;;;;;;;;;;;;;;;;5022264;28;1949;-76
2022/10/15 01:49:20;;;;;;;;;;;;;;;;;;5023433;28;1144;-76
2022/10/15 01:51:46;;;;;;;;;;;;;;;;;;5023323;28;902;-76
2022/10/15 01:54:14;;;;;;;;;;;;;;;;;;5023023;28;1010;-76
2022/10/15 01:56:39;;;;;;;;;;;;;;;;;;5023107;28;972;-76
2022/10/15 01:59:05;;;;;;;;;;;;;;;;;;5023041;28;1180;-76
2022/10/15 02:01:31;;;;;;;;;;;;;;;;;;5023492;28;982;-76
2022/10/15 02:03:56;;;;;;;;;;;;;;;;;;5023007;28;962;-76
2022/10/15 02:06:27;;;;;;;;;;;;;;;;;;5022744;28;1973;-76
2022/10/15 02:09:11;;;;;;;;;;;;;;;;;;5022928;28;1233;-76
2022/10/15 02:11:45;;;;;;;;;;;;;;;;;;5023112;28;969;-76
2022/10/15 02:14:15;;;;;;;;;;;;;;;;;;5022904;28;985;-76
2022/10/15 02:16:48;;;;;;;;;;;;;;;;;;5022645;28;905;-76
2022/10/15 02:19:30;;;;;;;;;;;;;;;;;;5022836;28;1255;-76
2022/10/15 02:22:00;;;;;;;;;;;;;;;;;;5022946;28;934;-76
2022/10/15 02:24:27;;;;;;;;;;;;;;;;;;5022483;28;907;-76
2022/10/15 02:26:53;;;;;;;;;;;;;;;;;;5022711;28;1972;-76
2022/10/15 02:29:20;;;;;;;;;;;;;;;;;;5022501;28;1255;-76
2022/10/15 02:31:46;;;;;;;;;;;;;;;;;;5022712;28;923;-76
2022/10/15 02:34:12;;;;;;;;;;;;;;;;;;5020715;28;1013;-76
2022/10/15 02:36:39;;;;;;;;;;;;;;;;;;5022180;28;709;-76
2022/10/15 02:39:05;;;;;;;;;;;;;;;;;;5022622;28;1144;-76
2022/10/15 02:41:32;;;;;;;;;;;;;;;;;;5022766;28;989;-76
2022/10/15 02:43:57;;;;;;;;;;;;;;;;;;5004944;28;941;-76
2022/10/15 02:46:22;;;;;;;;;;;;;;;;;;5022026;28;1890;-76
2022/10/15 02:48:48;;;;;;;;;;;;;;;;;;5022528;28;1160;-76
2022/10/15 02:51:13;;;;;;;;;;;;;;;;;;5022514;28;1036;-76
2022/10/15 02:53:38;;;;;;;;;;;;;;;;;;5022370;28;879;-76
2022/10/15 02:56:03;;;;;;;;;;;;;;;;;;5021921;28;1061;-76
2022/10/15 02:58:29;;;;;;;;;;;;;;;;;;5022033;28;1239;-76
2022/10/15 03:00:55;;;;;;;;;;;;;;;;;;5022294;28;863;-76
2022/10/15 03:03:20;;;;;;;;;;;;;;;;;;5022089;28;815;-76
2022/10/15 03:05:45;;;;;;;;;;;;;;;;;;5021860;28;823;-76
2022/10/15 03:08:10;;;;;;;;;;;;;;;;;;5022124;28;1963;-76
2022/10/15 03:10:35;;;;;;;;;;;;;;;;;;5004267;28;1287;-76
2022/10/15 03:13:02;;;;;;;;;;;;;;;;;;5022000;28;796;-76
2022/10/15 03:15:27;;;;;;;;;;;;;;;;;;5021756;28;835;-76
2022/10/15 03:17:52;;;;;;;;;;;;;;;;;;5021911;28;1141;-76
2022/10/15 03:20:17;;;;;;;;;;;;;;;;;;5021907;28;970;-76
2022/10/15 03:22:43;;;;;;;;;;;;;;;;;;5022005;28;894;-76
2022/10/15 03:25:08;;;;;;;;;;;;;;;;;;5021644;28;990;-76
2022/10/15 03:27:33;;;;;;;;;;;;;;;;;;5021576;28;1901;-76
2022/10/15 03:29:58;;;;;;;;;;;;;;;;;;5021864;28;874;-76
2022/10/15 03:32:23;;;;;;;;;;;;;;;;;;5021776;28;942;-76
2022/10/15 03:34:48;;;;;;;;;;;;;;;;;;5021506;28;831;-76
2022/10/15 03:37:14;;;;;;;;;;;;;;;;;;5021645;28;926;-76
2022/10/15 03:39:39;;;;;;;;;;;;;;;;;;5021959;28;1153;-76
2022/10/15 03:42:04;;;;;;;;;;;;;;;;;;5021519;28;969;-76
2022/10/15 03:44:29;;;;;;;;;;;;;;;;;;5021413;28;799;-76
2022/10/15 03:46:54;;;;;;;;;;;;;;;;;;5021437;28;1965;-76
2022/10/15 03:49:20;;;;;;;;;;;;;;;;;;5021669;28;1165;-76
2022/10/15 03:51:45;;;;;;;;;;;;;;;;;;5021377;28;886;-76
2022/10/15 03:54:10;;;;;;;;;;;;;;;;;;5021500;28;1114;-76
2022/10/15 03:56:35;;;;;;;;;;;;;;;;;;5021167;28;803;-76
2022/10/15 03:59:00;;;;;;;;;;;;;;;;;;5021309;28;1270;-76
2022/10/15 04:01:25;;;;;;;;;;;;;;;;;;5021697;28;839;-76
2022/10/15 04:03:51;;;;;;;;;;;;;;;;;;5020963;28;926;-76
2022/10/15 04:06:17;;;;;;;;;;;;;;;;;;5020546;28;1902;-76
2022/10/15 04:08:42;;;;;;;;;;;;;;;;;;5020781;28;1180;-76
2022/10/15 04:11:07;;;;;;;;;;;;;;;;;;5019977;28;803;-76
2022/10/15 04:13:32;;;;;;;;;;;;;;;;;;5020287;28;965;-76
2022/10/15 04:15:57;;;;;;;;;;;;;;;;;;5020460;28;840;-76
2022/10/15 04:18:22;;;;;;;;;;;;;;;;;;5020461;28;1160;-76
2022/10/15 04:20:48;;;;;;;;;;;;;;;;;;5020624;28;879;-76
2022/10/15 04:23:14;;;;;;;;;;;;;;;;;;5020481;28;835;-76
2022/10/15 04:25:39;;;;;;;;;;;;;;;;;;5002716;28;918;-76
2022/10/15 04:28:04;;;;;;;;;;;;;;;;;;5020288;28;1961;-76
2022/10/15 04:30:30;;;;;;;;;;;;;;;;;;5020556;28;823;-75
2022/10/15 04:32:55;;;;;;;;;;;;;;;;;;5020544;28;780;-75
2022/10/15 04:35:20;;;;;;;;;;;;;;;;;;5020135;28;898;-76
2022/10/15 04:37:45;;;;;;;;;;;;;;;;;;5020284;28;1192;-76
2022/10/15 04:40:11;;;;;;;;;;;;;;;;;;5020469;28;1084;-76
2022/10/15 04:42:36;;;;;;;;;;;;;;;;;;5020252;28;838;-75
2022/10/15 04:45:02;;;;;;;;;;;;;;;;;;5020202;28;1056;-75
2022/10/15 04:47:27;;;;;;;;;;;;;;;;;;5020274;28;1957;-76
2022/10/15 04:49:52;;;;;;;;;;;;;;;;;;5020669;28;795;-75
2022/10/15 04:52:17;;;;;;;;;;;;;;;;;;5002757;28;1397;-76
2022/10/15 04:54:42;;;;;;;;;;;;;;;;;;5019910;28;890;-74
2022/10/15 04:57:08;;;;;;;;;;;;;;;;;;5020014;28;946;-75
2022/10/15 04:59:33;;;;;;;;;;;;;;;;;;5019961;28;1153;-75
2022/10/15 05:01:58;;;;;;;;;;;;;;;;;;5020124;28;733;-75
2022/10/15 05:04:23;;;;;;;;;;;;;;;;;;5019782;28;998;-75
2022/10/15 05:06:48;;;;;;;;;;;;;;;;;;5019972;28;1882;-75
2022/10/15 05:09:14;;;;;;;;;;;;;;;;;;5019950;28;1177;-75
2022/10/15 05:11:39;;;;;;;;;;;;;;;;;;5019925;28;871;-75
2022/10/15 05:14:05;;;;;;;;;;;;;;;;;;5019693;28;1056;-75
2022/10/15 05:16:30;;;;;;;;;;;;;;;;;;5019706;28;819;-74
2022/10/15 05:18:57;;;;;;;;;;;;;;;;;;5019867;28;1176;-75
2022/10/15 05:21:22;;;;;;;;;;;;;;;;;;5019765;28;958;-74
2022/10/15 05:23:49;;;;;;;;;;;;;;;;;;5022851;28;807;-74
2022/10/15 05:26:16;;;;;;;;;;;;;;;;;;5022694;28;1957;-74
2022/10/15 05:28:41;;;;;;;;;;;;;;;;;;5005355;28;1200;-74
2022/10/15 05:31:16;;;;;;;;;;;;;;;;;;5023291;28;778;-74
2022/10/15 05:33:42;;;;;;;;;;;;;;;;;;5023439;28;862;-74
2022/10/15 05:36:11;;;;;;;;;;;;;;;;;;5022712;28;807;-74
2022/10/15 05:38:36;;;;;;;;;;;;;;;;;;5023066;28;1188;-75
2022/10/15 05:41:01;;;;;;;;;;;;;;;;;;5022849;28;981;-75
2022/10/15 05:43:26;;;;;;;;;;;;;;;;;;5023013;28;910;-74
2022/10/15 05:45:55;;;;;;;;;;;;;;;;;;5022579;28;858;-76
2022/10/15 05:48:20;;;;;;;;;;;;;;;;;;5022734;28;1953;-75
2022/10/15 05:50:45;;;;;;;;;;;;;;;;;;5022592;28;918;-76
2022/10/15 05:53:10;;;;;;;;;;;;;;;;;;5022900;28;1049;-76
2022/10/15 05:55:36;;;;;;;;;;;;;;;;;;5004435;28;1357;-76
2022/10/15 05:58:02;;;;;;;;;;;;;;;;;;5022744;28;1240;-76
2022/10/15 06:00:27;;;;;;;;;;;;;;;;;;5005095;28;827;-76
2022/10/15 06:02:52;;;;;;;;;;;;;;;;;;5022533;28;1005;-76
2022/10/15 06:05:17;;;;;;;;;;;;;;;;;;5022286;28;946;-76
2022/10/15 06:07:42;;;;;;;;;;;;;;;;;;5022535;28;1894;-75
2022/10/15 06:10:08;;;;;;;;;;;;;;;;;;5004769;28;1144;-75
2022/10/15 06:12:33;;;;;;;;;;;;;;;;;;5022749;28;835;-75
2022/10/15 06:14:58;;;;;;;;;;;;;;;;;;5022199;28;780;-75
2022/10/15 06:17:23;;;;;;;;;;;;;;;;;;5022389;28;1247;-75
2022/10/15 06:19:48;;;;;;;;;;;;;;;;;;5022588;28;1295;-75
2022/10/15 06:22:14;;;;;;;;;;;;;;;;;;5022378;28;764;-75
2022/10/15 06:24:39;;;;;;;;;;;;;;;;;;5021678;28;942;-75
2022/10/15 06:27:04;;;;;;;;;;;;;;;;;;5022008;28;1952;-75
2022/10/15 06:29:29;;;;;;;;;;;;;;;;;;5022014;28;1172;-75
2022/10/15 06:31:54;;;;;;;;;;;;;;;;;;5022086;28;966;-75
2022/10/15 06:34:19;;;;;;;;;;;;;;;;;;5021702;28;871;-75
2022/10/15 06:36:45;;;;;;;;;;;;;;;;;;5021712;28;724;-75
2022/10/15 06:39:10;;;;;;;;;;;;;;;;;;5021997;28;1274;-75
2022/10/15 06:41:35;;;;;;;;;;;;;;;;;;5021873;28;898;-75
2022/10/15 06:44:00;;;;;;;;;;;;;;;;;;5022066;28;947;-75
2022/10/15 06:46:25;;;;;;;;;;;;;;;;;;5019508;28;1890;-75
2022/10/15 06:48:51;;;;;;;;;;;;;;;;;;5003553;28;1180;-75
2022/10/15 06:51:17;;;;;;;;;;;;;;;;;;5021759;28;914;-75
2022/10/15 06:53:42;;;;;;;;;;;;;;;;;;5021814;28;835;-75
2022/10/15 06:56:08;;;;;;;;;;;;;;;;;;5003591;28;891;-75
2022/10/15 06:58:33;;;;;;;;;;;;;;;;;;5043971;22;2060;-78
2022/10/15 07:01:02;;;;;;;;;;;;;;;;;;5061339;28;811;-78
2022/10/15 07:03:28;;;;;;;;;;;;;;;;;;5053975;28;2274;-79
2022/10/15 07:05:53;;;;;;;;;;;;;;;;;;5041806;28;823;-78
2022/10/15 07:08:18;;;;;;;;;;;;;;;;;;5041673;28;1988;-78
2022/10/15 07:10:43;;;;;;;;;;;;;;;;;;5041908;28;795;-78
2022/10/15 07:13:08;;;;;;;;;;;;;;;;;;5042110;28;986;-77
2022/10/15 07:15:33;;;;;;;;;;;;;;;;;;5041756;28;850;-76
2022/10/15 07:18:01;;;;;;;;;;;;;;;;;;5041735;28;1153;-76
2022/10/15 07:20:28;;;;;;;;;;;;;;;;;;5040643;28;1732;-77
2022/10/15 07:22:57;;;;;;;;;;;;;;;;;;5041847;28;818;-77
2022/10/15 07:25:22;;;;;;;;;;;;;;;;;;5041390;28;818;-77
2022/10/15 07:27:48;;;;;;;;;;;;;;;;;;5040349;28;1960;-77
2022/10/15 07:30:13;;;;;;;;;;;;;;;;;;5041666;28;1200;-77
2022/10/15 07:32:38;;;;;;;;;;;;;;;;;;5041686;28;902;-78
2022/10/15 07:35:04;;;;;;;;;;;;;;;;;;5041208;28;796;-78
2022/10/15 07:37:30;;;;;;;;;;;;;;;;;;5041862;28;822;-76
2022/10/15 07:39:55;;;;;;;;;;;;;;;;;;5041506;28;1160;-77
2022/10/15 07:42:20;;;;;;;;;;;;;;;;;;5041464;28;851;-77
2022/10/15 07:44:46;;;;;;;;;;;;;;;;;;5040172;28;874;-77
2022/10/15 07:47:11;;;;;;;;;;;;;;;;;;5041279;28;1894;-76
2022/10/15 07:49:36;;;;;;;;;;;;;;;;;;5041419;28;1140;-77
2022/10/15 07:52:01;;;;;;;;;;;;;;;;;;5041467;28;827;-77
2022/10/15 07:54:26;;;;;;;;;;;;;;;;;;5040937;28;819;-77
2022/10/15 07:56:51;;;;;;;;;;;;;;;;;;5041007;28;887;-76
2022/10/15 07:59:17;;;;;;;;;;;;;;;;;;5041603;28;1173;-76
2022/10/15 08:01:42;;;;;;;;;;;;;;;;;;5042005;28;1073;-77
2022/10/15 08:04:07;;;;;;;;;;;;;;;;;;5041339;28;1016;-76
2022/10/15 08:06:32;;;;;;;;;;;;;;;;;;5040842;28;1902;-77
2022/10/15 08:08:57;;;;;;;;;;;;;;;;;;5040846;28;1153;-77
2022/10/15 08:11:23;;;;;;;;;;;;;;;;;;5041256;28;843;-77
2022/10/15 08:13:48;;;;;;;;;;;;;;;;;;5040997;28;795;-77
2022/10/15 08:16:14;;;;;;;;;;;;;;;;;;5040704;28;831;-77
2022/10/15 08:18:39;;;;;;;;;;;;;;;;;;5040839;28;1692;-77
2022/10/15 08:21:05;;;;;;;;;;;;;;;;;;5040465;28;819;-77
2022/10/15 08:23:31;;;;;;;;;;;;;;;;;;5040970;28;826;-78
2022/10/15 08:25:56;;;;;;;;;;;;;;;;;;5040364;28;822;-77
2022/10/15 08:28:21;;;;;;;;;;;;;;;;;;5040629;28;1914;-77
2022/10/15 08:30:47;;;;;;;;;;;;;;;;;;5040852;28;870;-77
2022/10/15 08:33:12;;;;;;;;;;;;;;;;;;5039552;28;1832;-77
2022/10/15 08:35:42;;;;;;;;;;;;;;;;;;5040252;28;973;-77
2022/10/15 08:38:07;;;;;;;;;;;;;;;;;;5040588;28;1233;-77
2022/10/15 08:40:32;;;;;;;;;;;;;;;;;;5040567;28;981;-77
2022/10/15 08:42:58;;;;;;;;;;;;;;;;;;5040813;28;942;-77
2022/10/15 08:45:27;;;;;;;;;;;;;;;;;;5040230;28;877;-77
2022/10/15 08:47:57;;;;;;;;;;;;;;;;;;5040755;28;1969;-77
2022/10/15 08:50:26;;;;;;;;;;;;;;;;;;5040513;28;1001;-77
2022/10/15 08:52:53;;;;;;;;;;;;;;;;;;5040439;28;787;-77
2022/10/15 08:55:19;;;;;;;;;;;;;;;;;;5040195;28;816;-77
2022/10/15 08:57:44;;;;;;;;;;;;;;;;;;5043421;28;839;-77
2022/10/15 09:00:13;;;;;;;;;;;;;;;;;;5043467;28;1168;-76
2022/10/15 09:02:43;;;;;;;;;;;;;;;;;;5043928;28;847;-76
2022/10/15 09:05:20;;;;;;;;;;;;;;;;;;5043492;28;980;-77
2022/10/15 09:07:48;;;;;;;;;;;;;;;;;;5043760;28;1898;-77
2022/10/15 09:10:23;;;;;;;;;;;;;;;;;;5043598;28;1169;-76
2022/10/15 09:12:54;;;;;;;;;;;;;;;;;;5044087;28;977;-76
2022/10/15 09:15:20;;;;;;;;;;;;;;;;;;5043470;28;909;-76
2022/10/15 09:17:47;;;;;;;;;;;;;;;;;;5043647;28;1063;-77
2022/10/15 09:20:17;;;;;;;;;;;;;;;;;;5043556;28;1144;-77
2022/10/15 09:22:42;;;;;;;;;;;;;;;;;;5043766;28;826;-77
2022/10/15 09:25:14;;;;;;;;;;;;;;;;;;5043316;28;991;-77
2022/10/15 09:27:40;;;;;;;;;;;;;;;;;;5043733;28;1898;-77
2022/10/15 09:30:05;;;;;;;;;;;;;;;;;;5043464;28;1172;-77
2022/10/15 09:32:43;;;;;;;;;;;;;;;;;;5043474;28;898;-77
2022/10/15 09:35:12;;;;;;;;;;;;;;;;;;5041904;28;1668;-77
2022/10/15 09:37:57;;;;;;;;;;;;;;;;;;5043177;28;776;-77
2022/10/15 09:40:35;;;;;;;;;;;;;;;;;;5042827;28;1098;-77
2022/10/15 09:43:01;;;;;;;;;;;;;;;;;;5043910;28;803;-77
2022/10/15 09:45:26;;;;;;;;;;;;;;;;;;5042962;28;989;-77
2022/10/15 09:47:55;;;;;;;;;;;;;;;;;;5043081;28;1886;-77
2022/10/15 09:50:20;;;;;;;;;;;;;;;;;;5043342;28;889;-76
2022/10/15 09:52:46;;;;;;;;;;;;;;;;;;5043085;28;902;-76
2022/10/15 09:55:29;;;;;;;;;;;;;;;;;;5042903;28;819;-76
2022/10/15 09:57:57;;;;;;;;;;;;;;;;;;5049544;28;1458;-76
2022/10/15 10:00:22;;;;;;;;;;;;;;;;;;5062107;28;1370;-76
2022/10/15 10:03:05;;;;;;;;;;;;;;;;;;5062881;28;830;-76
2022/10/15 10:05:32;;;;;;;;;;;;;;;;;;5062583;28;806;-77
2022/10/15 10:08:30;;;;;;;;;;;;;;;;;;5061899;28;1898;-76
2022/10/15 10:10:56;;;;;;;;;;;;;;;;;;5029171;28;1261;-77
2022/10/15 10:13:27;;;;;;;;;;;;;;;;;;5062924;28;846;-77
2022/10/15 10:15:53;;;;;;;;;;;;;;;;;;5062628;28;1079;-77
2022/10/15 10:18:23;;;;;;;;;;;;;;;;;;5062524;28;1241;-76
2022/10/15 10:20:58;;;;;;;;;;;;;;;;;;5062718;28;1935;-77
2022/10/15 10:23:27;;;;;;;;;;;;;;;;;;5062678;28;854;-76
2022/10/15 10:25:54;;;;;;;;;;;;;;;;;;5062448;28;996;-76
2022/10/15 10:28:24;;;;;;;;;;;;;;;;;;5062317;28;2291;-76
2022/10/15 10:30:52;;;;;;;;;;;;;;;;;;5062574;28;869;-76
2022/10/15 10:33:28;;;;;;;;;;;;;;;;;;5062546;28;836;-76
2022/10/15 10:35:53;;;;;;;;;;;;;;;;;;5062247;28;843;-77
2022/10/15 10:38:21;;;;;;;;;;;;;;;;;;5062116;28;1266;-77
2022/10/15 10:40:50;;;;;;;;;;;;;;;;;;5062463;28;807;-76
2022/10/15 10:43:15;;;;;;;;;;;;;;;;;;5062287;28;826;-76
2022/10/15 10:45:54;;;;;;;;;;;;;;;;;;5061956;28;1025;-76
2022/10/15 10:48:22;;;;;;;;;;;;;;;;;;5060211;28;1951;-76
2022/10/15 10:50:47;;;;;;;;;;;;;;;;;;5061891;28;886;-76
2022/10/15 10:53:22;;;;;;;;;;;;;;;;;;5062402;28;891;-76
2022/10/15 10:55:48;;;;;;;;;;;;;;;;;;5061827;28;845;-76
2022/10/15 10:58:19;;;;;;;;;;;;;;;;;;5061957;28;1258;-76
2022/10/15 11:00:46;;;;;;;;;;;;;;;;;;5062126;28;783;-76
2022/10/15 11:03:29;;;;;;;;;;;;;;;;;;5062109;28;916;-76
2022/10/15 11:06:00;;;;;;;;;;;;;;;;;;5061675;28;838;-76
2022/10/15 11:08:35;;;;;;;;;;;;;;;;;;5061754;28;1897;-76
2022/10/15 11:11:26;;;;;;;;;;;;;;;;;;5061823;28;1060;-76
2022/10/15 11:14:04;;;;;;;;;;;;;;;;;;5058982;28;1202;-77
2022/10/15 11:16:38;;;;;;;;;;;;;;;;;;5061410;28;909;-76
2022/10/15 11:19:09;;;;;;;;;;;;;;;;;;5061615;28;1192;-76
2022/10/15 11:22:02;;;;;;;;;;;;;;;;;;5061729;28;798;-75
2022/10/15 11:24:27;;;;;;;;;;;;;;;;;;5061667;28;834;-75
2022/10/15 11:26:58;;;;;;;;;;;;;;;;;;5061588;28;1895;-76
2022/10/15 11:29:24;;;;;;;;;;;;;;;;;;5061746;28;1275;-76
2022/10/15 11:32:06;;;;;;;;;;;;;;;;;;5061521;28;881;-76
2022/10/15 11:34:50;;;;;;;;;;;;;;;;;;5061377;28;949;-76
2022/10/15 11:37:39;;;;;;;;;;;;;;;;;;5061280;28;1029;-76
2022/10/15 11:40:04;;;;;;;;;;;;;;;;;;5053118;28;1291;-78
2022/10/15 11:42:34;;;;;;;;;;;;;;;;;;5061719;28;1025;-77
2022/10/15 11:45:07;;;;;;;;;;;;;;;;;;5061127;28;783;-77
2022/10/15 11:47:53;;;;;;;;;;;;;;;;;;5061120;28;1957;-78
2022/10/15 11:50:18;;;;;;;;;;;;;;;;;;5060303;28;1644;-77
2022/10/15 11:53:15;;;;;;;;;;;;;;;;;;5061338;28;1109;-78
2022/10/15 11:55:49;;;;;;;;;;;;;;;;;;5026909;28;1201;-78
2022/10/15 11:58:22;;;;;;;;;;;;;;;;;;5061121;28;1307;-77
2022/10/15 12:00:52;;;;;;;;;;;;;;;;;;5061039;28;861;-78
2022/10/15 12:03:19;;;;;;;;;;;;;;;;;;5061240;28;837;-78
2022/10/15 12:05:51;;;;;;;;;;;;;;;;;;5060824;28;914;-77
2022/10/15 12:08:16;;;;;;;;;;;;;;;;;;5060937;28;1917;-78
2022/10/15 12:10:50;;;;;;;;;;;;;;;;;;5060872;28;842;-77
2022/10/15 12:13:37;;;;;;;;;;;;;;;;;;5061208;28;814;-77
2022/10/15 12:16:38;;;;;;;;;;;;;;;;;;5060512;28;1259;-77
2022/10/15 12:19:03;;;;;;;;;;;;;;;;;;4999032;28;1208;-77
2022/10/15 12:21:37;;;;;;;;;;;;;;;;;;5047911;28;933;-78
2022/10/15 12:24:03;;;;;;;;;;;;;;;;;;5061003;28;909;-78
2022/10/15 12:26:30;;;;;;;;;;;;;;;;;;5060565;28;1957;-77
2022/10/15 12:28:56;;;;;;;;;;;;;;;;;;5060834;28;1183;-77
2022/10/15 12:31:23;;;;;;;;;;;;;;;;;;5061721;28;898;-77
2022/10/15 12:33:54;;;;;;;;;;;;;;;;;;5064528;28;822;-78
2022/10/15 12:36:28;;;;;;;;;;;;;;;;;;5064065;28;810;-77
2022/10/15 12:38:56;;;;;;;;;;;;;;;;;;5064291;28;1175;-77
2022/10/15 12:41:32;;;;;;;;;;;;;;;;;;5064194;28;870;-76
2022/10/15 12:44:23;;;;;;;;;;;;;;;;;;5064258;28;1053;-77
2022/10/15 12:46:49;;;;;;;;;;;;;;;;;;5060765;28;1898;-77
2022/10/15 12:49:27;;;;;;;;;;;;;;;;;;5064177;28;1314;-78
2022/10/15 12:51:52;;;;;;;;;;;;;;;;;;5064035;28;866;-78
2022/10/15 12:54:38;;;;;;;;;;;;;;;;;;5063889;28;862;-77
2022/10/15 12:57:24;;;;;;;;;;;;;;;;;;5064005;28;921;-77
2022/10/15 12:59:53;;;;;;;;;;;;;;;;;;5076777;22;3673;-75
2022/10/15 13:02:42;;;;;;;;;;;;;;;;;;5063866;28;853;-75
2022/10/15 13:05:08;;;;;;;;;;;;;;;;;;5064436;28;965;-75
2022/10/15 13:07:36;;;;;;;;;;;;;;;;;;5063840;28;1969;-75
2022/10/15 13:10:02;;;;;;;;;;;;;;;;;;5063798;28;1266;-75
2022/10/15 13:12:28;;;;;;;;;;;;;;;;;;5064076;28;770;-75
2022/10/15 13:14:55;;;;;;;;;;;;;;;;;;5063569;28;870;-75
2022/10/15 13:17:21;;;;;;;;;;;;;;;;;;5063601;28;1052;-75
2022/10/15 13:19:57;;;;;;;;;;;;;;;;;;5063986;28;1183;-74
2022/10/15 13:22:26;;;;;;;;;;;;;;;;;;5063667;28;909;-75
2022/10/15 13:24:52;;;;;;;;;;;;;;;;;;5063480;28;993;-75
2022/10/15 13:27:36;;;;;;;;;;;;;;;;;;5063388;28;1893;-75
2022/10/15 13:30:11;;;;;;;;;;;;;;;;;;5063333;28;1184;-74
2022/10/15 13:32:39;;;;;;;;;;;;;;;;;;5063411;28;822;-75
2022/10/15 13:35:12;;;;;;;;;;;;;;;;;;5063201;28;902;-75
2022/10/15 13:37:38;;;;;;;;;;;;;;;;;;5063477;28;921;-75
2022/10/15 13:40:03;;;;;;;;;;;;;;;;;;5063192;28;1252;-75
2022/10/15 13:42:30;;;;;;;;;;;;;;;;;;5062382;28;815;-75
2022/10/15 13:44:56;;;;;;;;;;;;;;;;;;5062932;28;1025;-75
2022/10/15 13:47:33;;;;;;;;;;;;;;;;;;5063119;28;1951;-75
2022/10/15 13:50:30;;;;;;;;;;;;;;;;;;5063238;28;1140;-75
2022/10/15 13:53:16;;;;;;;;;;;;;;;;;;5050720;28;1379;-75
2022/10/15 13:55:48;;;;;;;;;;;;;;;;;;5058890;28;1207;-74
2022/10/15 13:58:18;;;;;;;;;;;;;;;;;;5062901;28;1246;-74
2022/10/15 14:00:48;;;;;;;;;;;;;;;;;;5063032;28;869;-74
2022/10/15 14:03:13;;;;;;;;;;;;;;;;;;5062854;28;997;-75
2022/10/15 14:05:39;;;;;;;;;;;;;;;;;;5062881;28;858;-74
2022/10/15 14:08:04;;;;;;;;;;;;;;;;;;5062882;28;1967;-74
2022/10/15 14:10:30;;;;;;;;;;;;;;;;;;5063454;28;1188;-75
2022/10/15 14:12:55;;;;;;;;;;;;;;;;;;5063324;28;835;-74
2022/10/15 14:15:39;;;;;;;;;;;;;;;;;;5062538;28;803;-74
2022/10/15 14:18:05;;;;;;;;;;;;;;;;;;5063451;28;878;-75
2022/10/15 14:20:30;;;;;;;;;;;;;;;;;;5062574;28;1211;-74
2022/10/15 14:22:55;;;;;;;;;;;;;;;;;;5062800;28;906;-74
2022/10/15 14:25:24;;;;;;;;;;;;;;;;;;5062337;28;803;-74
2022/10/15 14:27:49;;;;;;;;;;;;;;;;;;5062675;28;1894;-75
2022/10/15 14:30:20;;;;;;;;;;;;;;;;;;5062192;28;1121;-75
2022/10/15 14:32:47;;;;;;;;;;;;;;;;;;5062641;28;989;-75
2022/10/15 14:35:29;;;;;;;;;;;;;;;;;;5062135;28;807;-75
2022/10/15 14:38:02;;;;;;;;;;;;;;;;;;5062515;28;1009;-75
2022/10/15 14:40:27;;;;;;;;;;;;;;;;;;5062132;28;1260;-75
2022/10/15 14:43:03;;;;;;;;;;;;;;;;;;5062484;28;853;-75
2022/10/15 14:45:30;;;;;;;;;;;;;;;;;;5062187;28;925;-75
2022/10/15 14:48:00;;;;;;;;;;;;;;;;;;5062450;28;1890;-75
2022/10/15 14:50:29;;;;;;;;;;;;;;;;;;5062394;28;1223;-74
2022/10/15 14:52:56;;;;;;;;;;;;;;;;;;5062345;28;960;-74
2022/10/15 14:55:36;;;;;;;;;;;;;;;;;;5061448;28;885;-74
2022/10/15 14:58:06;;;;;;;;;;;;;;;;;;5062304;28;830;-74
2022/10/15 15:00:32;;;;;;;;;;;;;;;;;;5061907;28;1219;-74
2022/10/15 15:02:58;;;;;;;;;;;;;;;;;;5062265;28;794;-74
2022/10/15 15:05:25;;;;;;;;;;;;;;;;;;5061647;28;968;-74
2022/10/15 15:07:50;;;;;;;;;;;;;;;;;;5062090;28;1894;-74
2022/10/15 15:10:16;;;;;;;;;;;;;;;;;;5061925;28;1128;-74
2022/10/15 15:12:44;;;;;;;;;;;;;;;;;;5061965;28;870;-74
2022/10/15 15:15:13;;;;;;;;;;;;;;;;;;5061518;28;926;-75
2022/10/15 15:17:38;;;;;;;;;;;;;;;;;;5061937;28;842;-74
2022/10/15 15:20:04;;;;;;;;;;;;;;;;;;5061568;28;1219;-74
2022/10/15 15:22:30;;;;;;;;;;;;;;;;;;5061873;28;997;-75
2022/10/15 15:24:56;;;;;;;;;;;;;;;;;;5061745;28;850;-75
2022/10/15 15:27:29;;;;;;;;;;;;;;;;;;5061683;28;1950;-75
2022/10/15 15:29:54;;;;;;;;;;;;;;;;;;5061703;28;1141;-74
2022/10/15 15:32:20;;;;;;;;;;;;;;;;;;5061732;28;969;-74
2022/10/15 15:34:46;;;;;;;;;;;;;;;;;;5061270;28;835;-74
2022/10/15 15:37:19;;;;;;;;;;;;;;;;;;5061682;28;795;-74
2022/10/15 15:39:44;;;;;;;;;;;;;;;;;;5061424;28;1311;-74
2022/10/15 15:42:17;;;;;;;;;;;;;;;;;;5061520;28;810;-74
2022/10/15 15:44:42;;;;;;;;;;;;;;;;;;5061082;28;814;-74
2022/10/15 15:47:07;;;;;;;;;;;;;;;;;;5061228;28;1894;-74
2022/10/15 15:49:33;;;;;;;;;;;;;;;;;;5061459;28;1160;-74
2022/10/15 15:51:58;;;;;;;;;;;;;;;;;;5061119;28;857;-74
2022/10/15 15:54:23;;;;;;;;;;;;;;;;;;5061281;28;795;-74
2022/10/15 15:56:48;;;;;;;;;;;;;;;;;;5061589;28;795;-75
2022/10/15 15:59:15;;;;;;;;;;;;;;;;;;5063159;28;1184;-74
2022/10/15 16:01:41;;;;;;;;;;;;;;;;;;5060965;28;823;-76
2022/10/15 16:04:06;;;;;;;;;;;;;;;;;;5061338;28;857;-75
2022/10/15 16:06:31;;;;;;;;;;;;;;;;;;5059952;28;977;-74
2022/10/15 16:08:58;;;;;;;;;;;;;;;;;;5061255;28;1902;-75
2022/10/15 16:11:23;;;;;;;;;;;;;;;;;;5060792;28;863;-75
2022/10/15 16:13:48;;;;;;;;;;;;;;;;;;5069275;28;909;-75
2022/10/15 16:16:14;;;;;;;;;;;;;;;;;;5062471;28;863;-74
2022/10/15 16:18:39;;;;;;;;;;;;;;;;;;5059533;28;2297;-74
2022/10/15 16:21:04;;;;;;;;;;;;;;;;;;5061094;28;876;-74
2022/10/15 16:23:30;;;;;;;;;;;;;;;;;;5060803;28;849;-74
2022/10/15 16:25:56;;;;;;;;;;;;;;;;;;5060674;28;816;-74
2022/10/15 16:28:21;;;;;;;;;;;;;;;;;;5060542;28;1964;-74
2022/10/15 16:30:46;;;;;;;;;;;;;;;;;;5059434;28;1394;-74
2022/10/15 16:33:11;;;;;;;;;;;;;;;;;;5060800;28;960;-74
2022/10/15 16:35:37;;;;;;;;;;;;;;;;;;5060572;28;1040;-74
2022/10/15 16:38:02;;;;;;;;;;;;;;;;;;5060916;28;787;-74
2022/10/15 16:40:27;;;;;;;;;;;;;;;;;;5061000;28;1247;-74
2022/10/15 16:42:52;;;;;;;;;;;;;;;;;;5060723;28;976;-74
2022/10/15 16:45:17;;;;;;;;;;;;;;;;;;5060272;28;806;-74
2022/10/15 16:47:43;;;;;;;;;;;;;;;;;;5060663;28;1959;-74
2022/10/15 16:50:08;;;;;;;;;;;;;;;;;;5060685;28;1160;-74
2022/10/15 16:52:33;;;;;;;;;;;;;;;;;;5060520;28;847;-74
2022/10/15 16:54:58;;;;;;;;;;;;;;;;;;5060284;28;930;-74
2022/10/15 16:57:24;;;;;;;;;;;;;;;;;;5060523;28;1072;-74
2022/10/15 16:59:49;;;;;;;;;;;;;;;;;;5060183;28;1164;-74
2022/10/15 17:02:15;;;;;;;;;;;;;;;;;;5060329;28;815;-74
2022/10/15 17:04:40;;;;;;;;;;;;;;;;;;5060133;28;910;-74
2022/10/15 17:07:05;;;;;;;;;;;;;;;;;;5060401;28;1897;-74
2022/10/15 17:09:30;;;;;;;;;;;;;;;;;;5060281;28;1228;-74
2022/10/15 17:11:56;;;;;;;;;;;;;;;;;;5060108;28;913;-74
2022/10/15 17:14:21;;;;;;;;;;;;;;;;;;5060067;28;993;-74
2022/10/15 17:16:50;;;;;;;;;;;;;;;;;;5060236;28;918;-74
2022/10/15 17:19:17;;;;;;;;;;;;;;;;;;5063633;28;1152;-74